DFETT EDDH-EDDF
Flight info
| Callsign | DFETT |
|---|---|
| Flight time | N/A |
| Altitude | 30000 |
| Route | AMLUH3B AMLUH M852 DENIX DCT RIMET/N0279F290 T157 KOKEB/N0275F230 T157 KERAX KERAX5D |
| Aircraft | SF50/L-SDGRWY/L |
Departure
| Time | 2026-05-01 11:15 |
|---|---|
| Airport | Hamburg Helmut Schmidt Airport (EDDH) |
Arrival
| Time | N/A |
|---|---|
| Airport | Frankfurt Main Airport (EDDF) |
| Time | Latitude | Longitude | Altitude | Speed | Heading |
|---|---|---|---|---|---|
| 2026-05-01 11:02 | 53.62697 | 9.98834 | 57 ft | 0 kts | 243° |
| 2026-05-01 11:07 | 53.62694 | 9.98831 | 57 ft | 2 kts | 178° |
| 2026-05-01 11:08 | 53.62698 | 9.98866 | 57 ft | 0 kts | 102° |
| 2026-05-01 11:08 | 53.62703 | 9.98873 | 57 ft | 4 kts | 0° |
| 2026-05-01 11:08 | 53.62808 | 9.98803 | 57 ft | 8 kts | 20° |
| 2026-05-01 11:09 | 53.62845 | 9.98870 | 57 ft | 6 kts | 52° |
| 2026-05-01 11:09 | 53.62876 | 9.98933 | 57 ft | 9 kts | 49° |
| 2026-05-01 11:09 | 53.62915 | 9.99008 | 57 ft | 7 kts | 50° |
| 2026-05-01 11:10 | 53.62973 | 9.99124 | 57 ft | 6 kts | 49° |
| 2026-05-01 11:10 | 53.63003 | 9.99184 | 57 ft | 8 kts | 51° |
| 2026-05-01 11:10 | 53.63047 | 9.99282 | 57 ft | 12 kts | 54° |
| 2026-05-01 11:10 | 53.63100 | 9.99404 | 57 ft | 12 kts | 54° |
| 2026-05-01 11:11 | 53.63151 | 9.99515 | 57 ft | 11 kts | 51° |
| 2026-05-01 11:11 | 53.63197 | 9.99627 | 57 ft | 11 kts | 54° |
| 2026-05-01 11:11 | 53.63248 | 9.99717 | 57 ft | 10 kts | 35° |
| 2026-05-01 11:11 | 53.63298 | 9.99796 | 57 ft | 9 kts | 52° |
| 2026-05-01 11:12 | 53.63341 | 9.99884 | 57 ft | 9 kts | 51° |
| 2026-05-01 11:12 | 53.63382 | 9.99965 | 57 ft | 7 kts | 50° |
| 2026-05-01 11:12 | 53.63424 | 10.00050 | 57 ft | 10 kts | 52° |
| 2026-05-01 11:12 | 53.63474 | 10.00105 | 57 ft | 8 kts | 353° |
| 2026-05-01 11:13 | 53.63516 | 10.00062 | 57 ft | 1 kts | 321° |
| 2026-05-01 11:13 | 53.63538 | 10.00032 | 57 ft | 8 kts | 320° |
| 2026-05-01 11:14 | 53.63573 | 9.99908 | 57 ft | 5 kts | 233° |
| 2026-05-01 11:14 | 53.63571 | 9.99906 | 57 ft | 0 kts | 230° |
| 2026-05-01 11:15 | 53.63556 | 9.99875 | 57 ft | 23 kts | 228° |
| 2026-05-01 11:15 | 53.63289 | 9.99338 | 58 ft | 93 kts | 229° |
| 2026-05-01 11:15 | 53.62817 | 9.98400 | 347 ft | 114 kts | 230° |
| 2026-05-01 11:15 | 53.62258 | 9.97274 | 672 ft | 133 kts | 231° |
| 2026-05-01 11:16 | 53.61637 | 9.96004 | 1014 ft | 156 kts | 230° |
| 2026-05-01 11:16 | 53.60900 | 9.94490 | 1507 ft | 177 kts | 230° |
| 2026-05-01 11:16 | 53.60086 | 9.92816 | 1996 ft | 195 kts | 229° |
| 2026-05-01 11:16 | 53.59190 | 9.90969 | 2489 ft | 212 kts | 229° |
| 2026-05-01 11:17 | 53.58227 | 9.88987 | 2936 ft | 227 kts | 229° |
| 2026-05-01 11:17 | 53.56977 | 9.87336 | 3343 ft | 236 kts | 197° |
| 2026-05-01 11:17 | 53.55362 | 9.87318 | 3797 ft | 241 kts | 167° |
| 2026-05-01 11:17 | 53.53734 | 9.88153 | 4253 ft | 246 kts | 151° |
| 2026-05-01 11:18 | 53.52415 | 9.89927 | 4767 ft | 247 kts | 127° |
| 2026-05-01 11:18 | 53.51654 | 9.92513 | 5281 ft | 250 kts | 105° |
| 2026-05-01 11:18 | 53.51450 | 9.95416 | 5797 ft | 253 kts | 94° |
| 2026-05-01 11:18 | 53.51404 | 9.98365 | 6297 ft | 254 kts | 89° |
| 2026-05-01 11:19 | 53.51371 | 10.01348 | 6743 ft | 260 kts | 89° |
| 2026-05-01 11:19 | 53.51210 | 10.04410 | 7190 ft | 265 kts | 106° |
| 2026-05-01 11:19 | 53.50502 | 10.07262 | 7641 ft | 268 kts | 117° |
| 2026-05-01 11:19 | 53.49657 | 10.10057 | 8092 ft | 271 kts | 118° |
| 2026-05-01 11:20 | 53.48801 | 10.12873 | 8543 ft | 265 kts | 118° |
| 2026-05-01 11:20 | 53.47967 | 10.15619 | 8993 ft | 267 kts | 119° |
| 2026-05-01 11:20 | 53.47119 | 10.18411 | 9445 ft | 269 kts | 119° |
| 2026-05-01 11:20 | 53.46118 | 10.21055 | 9895 ft | 267 kts | 135° |
| 2026-05-01 11:21 | 53.44848 | 10.23263 | 10343 ft | 266 kts | 138° |
| 2026-05-01 11:21 | 53.43510 | 10.25380 | 10785 ft | 262 kts | 150° |
| 2026-05-01 11:21 | 53.41893 | 10.26694 | 11242 ft | 258 kts | 161° |
| 2026-05-01 11:21 | 53.40233 | 10.27815 | 11696 ft | 256 kts | 162° |
| 2026-05-01 11:22 | 53.38593 | 10.28901 | 12144 ft | 254 kts | 162° |
| 2026-05-01 11:22 | 53.36948 | 10.29985 | 12580 ft | 253 kts | 163° |
| 2026-05-01 11:22 | 53.35325 | 10.31053 | 12977 ft | 254 kts | 163° |
| 2026-05-01 11:22 | 53.33667 | 10.32141 | 13382 ft | 253 kts | 163° |
| 2026-05-01 11:23 | 53.32042 | 10.33206 | 13744 ft | 254 kts | 163° |
| 2026-05-01 11:23 | 53.30392 | 10.34286 | 14070 ft | 257 kts | 164° |
| 2026-05-01 11:23 | 53.28730 | 10.35374 | 14396 ft | 258 kts | 164° |
| 2026-05-01 11:23 | 53.27048 | 10.36473 | 14723 ft | 260 kts | 164° |
| 2026-05-01 11:24 | 53.25370 | 10.37570 | 15048 ft | 260 kts | 164° |
| 2026-05-01 11:24 | 53.23692 | 10.38666 | 15373 ft | 261 kts | 165° |
| 2026-05-01 11:24 | 53.20319 | 10.40865 | 16023 ft | 261 kts | 165° |
| 2026-05-01 11:25 | 53.18613 | 10.41976 | 16317 ft | 261 kts | 165° |
| 2026-05-01 11:25 | 53.15223 | 10.44179 | 16817 ft | 266 kts | 165° |
| 2026-05-01 11:25 | 53.13466 | 10.45206 | 17061 ft | 261 kts | 176° |
| 2026-05-01 11:26 | 53.11690 | 10.45336 | 17312 ft | 257 kts | 187° |
| 2026-05-01 11:26 | 53.08192 | 10.45022 | 17806 ft | 248 kts | 191° |
| 2026-05-01 11:26 | 53.06476 | 10.44806 | 18107 ft | 248 kts | 192° |
| 2026-05-01 11:27 | 53.04766 | 10.44580 | 18381 ft | 249 kts | 192° |
| 2026-05-01 11:27 | 53.03020 | 10.44343 | 18636 ft | 251 kts | 193° |
| 2026-05-01 11:27 | 53.01277 | 10.44106 | 18888 ft | 253 kts | 193° |
| 2026-05-01 11:27 | 52.99535 | 10.43868 | 19140 ft | 254 kts | 193° |
| 2026-05-01 11:28 | 52.97774 | 10.43627 | 19393 ft | 255 kts | 194° |
| 2026-05-01 11:28 | 52.96005 | 10.43385 | 19628 ft | 257 kts | 194° |
| 2026-05-01 11:28 | 52.94223 | 10.43141 | 19857 ft | 258 kts | 194° |
| 2026-05-01 11:29 | 52.90628 | 10.42650 | 20316 ft | 260 kts | 195° |
| 2026-05-01 11:29 | 52.88808 | 10.42402 | 20549 ft | 261 kts | 195° |
| 2026-05-01 11:29 | 52.85198 | 10.41910 | 21013 ft | 262 kts | 195° |
| 2026-05-01 11:30 | 52.83384 | 10.41664 | 21245 ft | 262 kts | 195° |
| 2026-05-01 11:30 | 52.81552 | 10.41415 | 21479 ft | 262 kts | 195° |
| 2026-05-01 11:30 | 52.79752 | 10.41170 | 21709 ft | 262 kts | 196° |
| 2026-05-01 11:30 | 52.77920 | 10.40922 | 21944 ft | 262 kts | 196° |
| 2026-05-01 11:31 | 52.76102 | 10.40676 | 22176 ft | 262 kts | 196° |
| 2026-05-01 11:31 | 52.74297 | 10.40431 | 22407 ft | 262 kts | 196° |
| 2026-05-01 11:31 | 52.72480 | 10.40185 | 22629 ft | 262 kts | 197° |
| 2026-05-01 11:31 | 52.70657 | 10.39938 | 22837 ft | 262 kts | 197° |
| 2026-05-01 11:32 | 52.68852 | 10.39694 | 23043 ft | 263 kts | 197° |
| 2026-05-01 11:32 | 52.67025 | 10.39448 | 23251 ft | 263 kts | 197° |
| 2026-05-01 11:32 | 52.65204 | 10.39202 | 23458 ft | 263 kts | 197° |
| 2026-05-01 11:32 | 52.63399 | 10.38959 | 23663 ft | 263 kts | 197° |
| 2026-05-01 11:33 | 52.61563 | 10.38712 | 23872 ft | 263 kts | 197° |
| 2026-05-01 11:33 | 52.59708 | 10.38462 | 24083 ft | 263 kts | 198° |
| 2026-05-01 11:33 | 52.57860 | 10.38214 | 24293 ft | 263 kts | 198° |
| 2026-05-01 11:33 | 52.56002 | 10.37965 | 24504 ft | 262 kts | 198° |
| 2026-05-01 11:34 | 52.54150 | 10.37716 | 24715 ft | 262 kts | 198° |
| 2026-05-01 11:34 | 52.52296 | 10.37468 | 24926 ft | 262 kts | 198° |
| 2026-05-01 11:34 | 52.50460 | 10.37222 | 25135 ft | 261 kts | 198° |
| 2026-05-01 11:34 | 52.48650 | 10.36979 | 25342 ft | 261 kts | 199° |
| 2026-05-01 11:35 | 52.46855 | 10.36739 | 25548 ft | 261 kts | 199° |
| 2026-05-01 11:35 | 52.45055 | 10.36499 | 25754 ft | 260 kts | 199° |
| 2026-05-01 11:35 | 52.43257 | 10.36259 | 25960 ft | 260 kts | 199° |
| 2026-05-01 11:35 | 52.41441 | 10.36017 | 26169 ft | 259 kts | 199° |
| 2026-05-01 11:36 | 52.39670 | 10.35781 | 26369 ft | 259 kts | 199° |
| 2026-05-01 11:36 | 52.37848 | 10.35533 | 26426 ft | 264 kts | 199° |
| 2026-05-01 11:36 | 52.35983 | 10.35280 | 26431 ft | 271 kts | 199° |
| 2026-05-01 11:36 | 52.34081 | 10.35026 | 26431 ft | 277 kts | 199° |
| 2026-05-01 11:37 | 52.32145 | 10.34770 | 26431 ft | 282 kts | 198° |
| 2026-05-01 11:37 | 52.30174 | 10.34509 | 26430 ft | 286 kts | 198° |
| 2026-05-01 11:37 | 52.28186 | 10.34247 | 26430 ft | 289 kts | 198° |
| 2026-05-01 11:37 | 52.26185 | 10.33983 | 26430 ft | 292 kts | 198° |
| 2026-05-01 11:38 | 52.24138 | 10.33713 | 26430 ft | 295 kts | 198° |
| 2026-05-01 11:38 | 52.22117 | 10.33446 | 26430 ft | 297 kts | 198° |
| 2026-05-01 11:38 | 52.20030 | 10.33171 | 26429 ft | 298 kts | 198° |
| 2026-05-01 11:38 | 52.17970 | 10.32900 | 26429 ft | 300 kts | 198° |
| 2026-05-01 11:39 | 52.15897 | 10.32627 | 26429 ft | 301 kts | 198° |
| 2026-05-01 11:39 | 52.13808 | 10.32352 | 26429 ft | 302 kts | 198° |
| 2026-05-01 11:39 | 52.11715 | 10.32077 | 26429 ft | 303 kts | 198° |
| 2026-05-01 11:39 | 52.09620 | 10.31802 | 26429 ft | 304 kts | 197° |
| 2026-05-01 11:40 | 52.07506 | 10.31524 | 26429 ft | 304 kts | 197° |
| 2026-05-01 11:40 | 52.05410 | 10.31249 | 26429 ft | 305 kts | 197° |
| 2026-05-01 11:40 | 52.03292 | 10.30971 | 26429 ft | 305 kts | 197° |
| 2026-05-01 11:40 | 52.01179 | 10.30695 | 26429 ft | 305 kts | 197° |
| 2026-05-01 11:41 | 51.99087 | 10.30421 | 26429 ft | 305 kts | 197° |
| 2026-05-01 11:41 | 51.96964 | 10.30143 | 26429 ft | 306 kts | 197° |
| 2026-05-01 11:41 | 51.94836 | 10.29866 | 26429 ft | 306 kts | 197° |
| 2026-05-01 11:41 | 51.92717 | 10.29589 | 26429 ft | 306 kts | 197° |
| 2026-05-01 11:42 | 51.90540 | 10.29305 | 26429 ft | 306 kts | 197° |
| 2026-05-01 11:42 | 51.88392 | 10.29025 | 26429 ft | 306 kts | 197° |
| 2026-05-01 11:42 | 51.86264 | 10.28748 | 26429 ft | 306 kts | 197° |
| 2026-05-01 11:42 | 51.84119 | 10.28469 | 26429 ft | 306 kts | 197° |
| 2026-05-01 11:43 | 51.82027 | 10.28198 | 26428 ft | 306 kts | 197° |
| 2026-05-01 11:43 | 51.79897 | 10.27921 | 26428 ft | 307 kts | 197° |
| 2026-05-01 11:43 | 51.77770 | 10.27646 | 26427 ft | 307 kts | 197° |
| 2026-05-01 11:44 | 51.73462 | 10.27088 | 26425 ft | 307 kts | 197° |
| 2026-05-01 11:44 | 51.71362 | 10.26816 | 26424 ft | 307 kts | 197° |
| 2026-05-01 11:44 | 51.69223 | 10.26540 | 26423 ft | 307 kts | 197° |
| 2026-05-01 11:44 | 51.67092 | 10.26265 | 26422 ft | 307 kts | 197° |
| 2026-05-01 11:45 | 51.64956 | 10.25990 | 26422 ft | 307 kts | 197° |
| 2026-05-01 11:45 | 51.62828 | 10.25716 | 26421 ft | 307 kts | 197° |
| 2026-05-01 11:45 | 51.60714 | 10.25444 | 26421 ft | 307 kts | 197° |
| 2026-05-01 11:45 | 51.58578 | 10.25169 | 26421 ft | 307 kts | 197° |
| 2026-05-01 11:46 | 51.56448 | 10.24896 | 26420 ft | 307 kts | 197° |
| 2026-05-01 11:46 | 51.54327 | 10.24624 | 26420 ft | 307 kts | 197° |
| 2026-05-01 11:46 | 51.52180 | 10.24348 | 26420 ft | 307 kts | 197° |
| 2026-05-01 11:46 | 51.50058 | 10.24077 | 26419 ft | 307 kts | 197° |
| 2026-05-01 11:47 | 51.47941 | 10.23806 | 26419 ft | 307 kts | 197° |
| 2026-05-01 11:47 | 51.45816 | 10.23534 | 26419 ft | 307 kts | 197° |
| 2026-05-01 11:47 | 51.43697 | 10.23264 | 26418 ft | 307 kts | 197° |
| 2026-05-01 11:47 | 51.41579 | 10.22993 | 26418 ft | 307 kts | 197° |
| 2026-05-01 11:48 | 51.39448 | 10.22722 | 26418 ft | 307 kts | 197° |
| 2026-05-01 11:48 | 51.37340 | 10.22452 | 26354 ft | 309 kts | 197° |
| 2026-05-01 11:48 | 51.35208 | 10.22184 | 26440 ft | 306 kts | 197° |
| 2026-05-01 11:48 | 51.33092 | 10.21983 | 26360 ft | 299 kts | 195° |
| 2026-05-01 11:49 | 51.31031 | 10.21912 | 25535 ft | 301 kts | 194° |
| 2026-05-01 11:49 | 51.28963 | 10.21865 | 25425 ft | 297 kts | 193° |
| 2026-05-01 11:49 | 51.26862 | 10.21817 | 25417 ft | 300 kts | 193° |
| 2026-05-01 11:49 | 51.24779 | 10.21772 | 25417 ft | 302 kts | 193° |
| 2026-05-01 11:50 | 51.22651 | 10.21729 | 25416 ft | 304 kts | 193° |
| 2026-05-01 11:50 | 51.20541 | 10.21686 | 25416 ft | 305 kts | 193° |
| 2026-05-01 11:50 | 51.18435 | 10.21643 | 25416 ft | 306 kts | 193° |
| 2026-05-01 11:50 | 51.16296 | 10.21599 | 25416 ft | 307 kts | 193° |
| 2026-05-01 11:51 | 51.14135 | 10.21557 | 25424 ft | 308 kts | 193° |
| 2026-05-01 11:51 | 51.12014 | 10.21518 | 25425 ft | 308 kts | 193° |
| 2026-05-01 11:51 | 51.09862 | 10.21480 | 25425 ft | 309 kts | 193° |
| 2026-05-01 11:51 | 51.07715 | 10.21441 | 25425 ft | 309 kts | 193° |
| 2026-05-01 11:52 | 51.05566 | 10.21402 | 25425 ft | 310 kts | 193° |
| 2026-05-01 11:52 | 51.03416 | 10.21364 | 25424 ft | 310 kts | 193° |
| 2026-05-01 11:52 | 51.01260 | 10.21325 | 25424 ft | 310 kts | 193° |
| 2026-05-01 11:52 | 50.99119 | 10.21292 | 25402 ft | 299 kts | 193° |
| 2026-05-01 11:53 | 50.97068 | 10.21258 | 24546 ft | 301 kts | 193° |
| 2026-05-01 11:53 | 50.95014 | 10.21215 | 23805 ft | 298 kts | 192° |
| 2026-05-01 11:53 | 50.92950 | 10.21179 | 23016 ft | 294 kts | 192° |
| 2026-05-01 11:53 | 50.90928 | 10.21141 | 22299 ft | 291 kts | 191° |
| 2026-05-01 11:54 | 50.88938 | 10.21112 | 21937 ft | 287 kts | 191° |
| 2026-05-01 11:54 | 50.86938 | 10.21066 | 21707 ft | 287 kts | 191° |
| 2026-05-01 11:54 | 50.84953 | 10.21028 | 21352 ft | 287 kts | 191° |
| 2026-05-01 11:54 | 50.82944 | 10.20987 | 21158 ft | 286 kts | 191° |
| 2026-05-01 11:55 | 50.81123 | 10.20289 | 20979 ft | 262 kts | 217° |
| 2026-05-01 11:55 | 50.79725 | 10.18584 | 20921 ft | 252 kts | 232° |
| 2026-05-01 11:55 | 50.78631 | 10.16421 | 20896 ft | 247 kts | 240° |
| 2026-05-01 11:55 | 50.77724 | 10.14138 | 20852 ft | 245 kts | 244° |
| 2026-05-01 11:56 | 50.76889 | 10.11787 | 20810 ft | 245 kts | 245° |
| 2026-05-01 11:56 | 50.76078 | 10.09365 | 20776 ft | 244 kts | 246° |
| 2026-05-01 11:56 | 50.75303 | 10.06993 | 20737 ft | 244 kts | 246° |
| 2026-05-01 11:56 | 50.74532 | 10.04603 | 20690 ft | 244 kts | 247° |
| 2026-05-01 11:57 | 50.73765 | 10.02216 | 20660 ft | 244 kts | 247° |
| 2026-05-01 11:57 | 50.73259 | 10.00638 | 20604 ft | 241 kts | 247° |
| 2026-05-01 11:57 | 50.72251 | 9.97491 | 20164 ft | 242 kts | 246° |
| 2026-05-01 11:57 | 50.71491 | 9.95121 | 19841 ft | 242 kts | 246° |
| 2026-05-01 11:58 | 50.70738 | 9.92776 | 19478 ft | 240 kts | 246° |
| 2026-05-01 11:58 | 50.69983 | 9.90423 | 19009 ft | 241 kts | 246° |
| 2026-05-01 11:58 | 50.68489 | 9.85774 | 18164 ft | 239 kts | 246° |
| 2026-05-01 11:59 | 50.67737 | 9.83439 | 17749 ft | 238 kts | 245° |
| 2026-05-01 11:59 | 50.66989 | 9.81119 | 17339 ft | 238 kts | 245° |
| 2026-05-01 11:59 | 50.66243 | 9.78805 | 16912 ft | 238 kts | 245° |
| 2026-05-01 12:00 | 50.64739 | 9.74149 | 16126 ft | 237 kts | 245° |
| 2026-05-01 12:00 | 50.63981 | 9.71805 | 15732 ft | 236 kts | 245° |
| 2026-05-01 12:00 | 50.62483 | 9.68246 | 15103 ft | 241 kts | 222° |
| 2026-05-01 12:01 | 50.60547 | 9.66475 | 14632 ft | 244 kts | 211° |
| 2026-05-01 12:01 | 50.59014 | 9.65373 | 14288 ft | 244 kts | 208° |
| 2026-05-01 12:01 | 50.57460 | 9.64345 | 13876 ft | 244 kts | 207° |
| 2026-05-01 12:01 | 50.55876 | 9.63341 | 13543 ft | 243 kts | 206° |
| 2026-05-01 12:02 | 50.54323 | 9.62376 | 13213 ft | 241 kts | 206° |
| 2026-05-01 12:02 | 50.52760 | 9.61413 | 12758 ft | 241 kts | 206° |
| 2026-05-01 12:02 | 50.51214 | 9.60467 | 12345 ft | 240 kts | 205° |
| 2026-05-01 12:02 | 50.49664 | 9.59522 | 11860 ft | 238 kts | 205° |
| 2026-05-01 12:03 | 50.48150 | 9.58592 | 11432 ft | 236 kts | 206° |
| 2026-05-01 12:03 | 50.46993 | 9.56877 | 11378 ft | 229 kts | 244° |
| 2026-05-01 12:03 | 50.46574 | 9.54471 | 11380 ft | 228 kts | 257° |
| 2026-05-01 12:03 | 50.46222 | 9.52049 | 11379 ft | 227 kts | 255° |
| 2026-05-01 12:04 | 50.45827 | 9.49651 | 11379 ft | 229 kts | 254° |
| 2026-05-01 12:04 | 50.45396 | 9.47208 | 11379 ft | 234 kts | 253° |
| 2026-05-01 12:04 | 50.44953 | 9.44790 | 11378 ft | 232 kts | 253° |
| 2026-05-01 12:04 | 50.44503 | 9.42366 | 11378 ft | 229 kts | 253° |
| 2026-05-01 12:05 | 50.44054 | 9.39980 | 11378 ft | 227 kts | 253° |
| 2026-05-01 12:05 | 50.43160 | 9.35255 | 11378 ft | 225 kts | 253° |
| 2026-05-01 12:05 | 50.42713 | 9.32910 | 11379 ft | 224 kts | 252° |
| 2026-05-01 12:06 | 50.42268 | 9.30571 | 11377 ft | 224 kts | 252° |
| 2026-05-01 12:06 | 50.41819 | 9.28216 | 11374 ft | 223 kts | 252° |
| 2026-05-01 12:06 | 50.41209 | 9.26002 | 11371 ft | 223 kts | 232° |
| 2026-05-01 12:06 | 50.40079 | 9.24333 | 11371 ft | 224 kts | 220° |
| 2026-05-01 12:07 | 50.38808 | 9.22853 | 11367 ft | 225 kts | 217° |
| 2026-05-01 12:07 | 50.37513 | 9.21475 | 11364 ft | 225 kts | 216° |
| 2026-05-01 12:07 | 50.36187 | 9.20130 | 11362 ft | 225 kts | 215° |
| 2026-05-01 12:07 | 50.34879 | 9.18833 | 11360 ft | 225 kts | 214° |
| 2026-05-01 12:08 | 50.33544 | 9.17524 | 11358 ft | 225 kts | 214° |
| 2026-05-01 12:08 | 50.32215 | 9.16228 | 11356 ft | 225 kts | 214° |
| 2026-05-01 12:08 | 50.30896 | 9.14948 | 11355 ft | 225 kts | 214° |
| 2026-05-01 12:08 | 50.29554 | 9.13649 | 11354 ft | 225 kts | 214° |
| 2026-05-01 12:09 | 50.28247 | 9.12375 | 11352 ft | 224 kts | 217° |
| 2026-05-01 12:09 | 50.27163 | 9.10618 | 11351 ft | 222 kts | 238° |
| 2026-05-01 12:09 | 50.26494 | 9.08475 | 11353 ft | 221 kts | 247° |
| 2026-05-01 12:09 | 50.25944 | 9.06230 | 11353 ft | 222 kts | 249° |
| 2026-05-01 12:10 | 50.25411 | 9.03954 | 11353 ft | 222 kts | 249° |
| 2026-05-01 12:10 | 50.24352 | 8.99423 | 11353 ft | 222 kts | 250° |
| 2026-05-01 12:10 | 50.23820 | 8.97148 | 11352 ft | 222 kts | 250° |
| 2026-05-01 12:11 | 50.22764 | 8.92645 | 11352 ft | 222 kts | 250° |
| 2026-05-01 12:11 | 50.22230 | 8.90369 | 11352 ft | 222 kts | 250° |
| 2026-05-01 12:11 | 50.21701 | 8.88118 | 11352 ft | 222 kts | 250° |
| 2026-05-01 12:12 | 50.21170 | 8.85863 | 11352 ft | 222 kts | 250° |
| 2026-05-01 12:12 | 50.20638 | 8.83604 | 11352 ft | 222 kts | 250° |
| 2026-05-01 12:12 | 50.20100 | 8.81319 | 11339 ft | 218 kts | 250° |
| 2026-05-01 12:12 | 50.19581 | 8.79118 | 10930 ft | 221 kts | 250° |
| 2026-05-01 12:13 | 50.19051 | 8.76875 | 10598 ft | 220 kts | 249° |
| 2026-05-01 12:13 | 50.18521 | 8.74636 | 10258 ft | 219 kts | 249° |
| 2026-05-01 12:13 | 50.17997 | 8.72419 | 9921 ft | 219 kts | 248° |